sensor_id;sensor_type;location;lat;lon;timestamp;P1;durP1;ratioP1;P2;durP2;ratioP2
58727;SDS011;44505;43.240;0.070;2022-08-21T00:02:21;5.00;;;3.55;;
58727;SDS011;44505;43.240;0.070;2022-08-21T00:04:47;3.77;;;3.47;;
58727;SDS011;44505;43.240;0.070;2022-08-21T00:07:13;5.30;;;3.90;;
58727;SDS011;44505;43.240;0.070;2022-08-21T00:09:39;4.20;;;2.85;;
58727;SDS011;44505;43.240;0.070;2022-08-21T00:12:05;4.10;;;3.33;;
58727;SDS011;44505;43.240;0.070;2022-08-21T00:14:30;4.35;;;3.00;;
58727;SDS011;44505;43.240;0.070;2022-08-21T00:16:56;3.80;;;2.80;;
58727;SDS011;44505;43.240;0.070;2022-08-21T00:19:21;3.80;;;3.50;;
58727;SDS011;44505;43.240;0.070;2022-08-21T00:21:50;3.65;;;3.28;;
58727;SDS011;44505;43.240;0.070;2022-08-21T00:24:16;4.57;;;3.10;;
58727;SDS011;44505;43.240;0.070;2022-08-21T00:26:41;5.20;;;3.33;;
58727;SDS011;44505;43.240;0.070;2022-08-21T00:29:08;4.28;;;2.67;;
58727;SDS011;44505;43.240;0.070;2022-08-21T00:31:33;4.25;;;2.75;;
58727;SDS011;44505;43.240;0.070;2022-08-21T00:33:58;4.18;;;3.75;;
58727;SDS011;44505;43.240;0.070;2022-08-21T00:36:24;5.03;;;2.70;;
58727;SDS011;44505;43.240;0.070;2022-08-21T00:38:49;5.18;;;3.50;;
58727;SDS011;44505;43.240;0.070;2022-08-21T00:41:15;3.10;;;2.80;;
58727;SDS011;44505;43.240;0.070;2022-08-21T00:43:40;3.88;;;3.45;;
58727;SDS011;44505;43.240;0.070;2022-08-21T00:46:06;5.03;;;2.88;;
58727;SDS011;44505;43.240;0.070;2022-08-21T00:48:33;3.78;;;3.40;;
58727;SDS011;44505;43.240;0.070;2022-08-21T00:51:04;7.47;;;2.95;;
58727;SDS011;44505;43.240;0.070;2022-08-21T00:53:30;6.20;;;3.60;;
58727;SDS011;44505;43.240;0.070;2022-08-21T00:55:56;4.57;;;3.53;;
58727;SDS011;44505;43.240;0.070;2022-08-21T00:58:22;6.30;;;3.60;;
58727;SDS011;44505;43.240;0.070;2022-08-21T01:00:49;3.53;;;2.78;;
58727;SDS011;44505;43.240;0.070;2022-08-21T01:03:16;4.53;;;3.60;;
58727;SDS011;44505;43.240;0.070;2022-08-21T01:05:42;4.15;;;2.85;;
58727;SDS011;44505;43.240;0.070;2022-08-21T01:08:08;5.13;;;3.10;;
58727;SDS011;44505;43.240;0.070;2022-08-21T01:10:34;3.38;;;2.67;;
58727;SDS011;44505;43.240;0.070;2022-08-21T01:13:00;4.30;;;3.47;;
58727;SDS011;44505;43.240;0.070;2022-08-21T01:15:32;3.05;;;2.63;;
58727;SDS011;44505;43.240;0.070;2022-08-21T01:17:58;3.83;;;2.65;;
58727;SDS011;44505;43.240;0.070;2022-08-21T01:20:23;3.50;;;2.50;;
58727;SDS011;44505;43.240;0.070;2022-08-21T01:22:49;3.50;;;3.20;;
58727;SDS011;44505;43.240;0.070;2022-08-21T01:25:15;3.50;;;3.20;;
58727;SDS011;44505;43.240;0.070;2022-08-21T01:27:41;4.15;;;2.47;;
58727;SDS011;44505;43.240;0.070;2022-08-21T01:30:20;4.30;;;2.80;;
58727;SDS011;44505;43.240;0.070;2022-08-21T01:32:47;4.72;;;3.42;;
58727;SDS011;44505;43.240;0.070;2022-08-21T01:35:14;3.38;;;2.70;;
58727;SDS011;44505;43.240;0.070;2022-08-21T01:37:40;4.25;;;3.13;;
58727;SDS011;44505;43.240;0.070;2022-08-21T01:40:06;4.82;;;3.15;;
58727;SDS011;44505;43.240;0.070;2022-08-21T01:42:32;4.22;;;3.05;;
58727;SDS011;44505;43.240;0.070;2022-08-21T01:44:57;5.43;;;3.88;;
58727;SDS011;44505;43.240;0.070;2022-08-21T01:47:22;4.82;;;3.15;;
58727;SDS011;44505;43.240;0.070;2022-08-21T01:49:48;4.05;;;3.65;;
58727;SDS011;44505;43.240;0.070;2022-08-21T01:52:14;5.05;;;3.70;;
58727;SDS011;44505;43.240;0.070;2022-08-21T01:54:40;4.45;;;3.28;;
58727;SDS011;44505;43.240;0.070;2022-08-21T01:57:06;4.30;;;3.72;;
58727;SDS011;44505;43.240;0.070;2022-08-21T01:59:31;4.53;;;3.08;;
58727;SDS011;44505;43.240;0.070;2022-08-21T02:01:57;6.10;;;3.15;;
58727;SDS011;44505;43.240;0.070;2022-08-21T02:04:23;9.15;;;2.90;;
58727;SDS011;44505;43.240;0.070;2022-08-21T02:06:48;3.70;;;3.38;;
58727;SDS011;44505;43.240;0.070;2022-08-21T02:09:14;3.58;;;2.80;;
58727;SDS011;44505;43.240;0.070;2022-08-21T02:11:40;5.50;;;3.00;;
58727;SDS011;44505;43.240;0.070;2022-08-21T02:14:13;4.50;;;3.00;;
58727;SDS011;44505;43.240;0.070;2022-08-21T02:16:39;4.72;;;3.42;;
58727;SDS011;44505;43.240;0.070;2022-08-21T02:19:05;6.35;;;3.63;;
58727;SDS011;44505;43.240;0.070;2022-08-21T02:21:31;3.83;;;2.97;;
58727;SDS011;44505;43.240;0.070;2022-08-21T02:23:56;5.50;;;4.00;;
58727;SDS011;44505;43.240;0.070;2022-08-21T02:26:22;5.28;;;3.00;;
58727;SDS011;44505;43.240;0.070;2022-08-21T02:28:47;3.92;;;3.53;;
58727;SDS011;44505;43.240;0.070;2022-08-21T02:31:13;5.63;;;2.90;;
58727;SDS011;44505;43.240;0.070;2022-08-21T02:33:38;5.30;;;2.85;;
58727;SDS011;44505;43.240;0.070;2022-08-21T02:36:04;3.50;;;3.20;;
58727;SDS011;44505;43.240;0.070;2022-08-21T02:38:31;5.80;;;3.90;;
58727;SDS011;44505;43.240;0.070;2022-08-21T02:41:00;3.53;;;2.67;;
58727;SDS011;44505;43.240;0.070;2022-08-21T02:43:26;3.80;;;2.85;;
58727;SDS011;44505;43.240;0.070;2022-08-21T02:45:52;3.70;;;3.40;;
58727;SDS011;44505;43.240;0.070;2022-08-21T02:48:19;3.90;;;2.80;;
58727;SDS011;44505;43.240;0.070;2022-08-21T02:50:46;4.03;;;2.88;;
58727;SDS011;44505;43.240;0.070;2022-08-21T02:53:13;3.97;;;3.05;;
58727;SDS011;44505;43.240;0.070;2022-08-21T02:55:41;3.50;;;2.90;;
58727;SDS011;44505;43.240;0.070;2022-08-21T02:58:07;3.90;;;3.03;;
58727;SDS011;44505;43.240;0.070;2022-08-21T03:00:34;3.42;;;3.13;;
58727;SDS011;44505;43.240;0.070;2022-08-21T03:03:00;3.40;;;3.03;;
58727;SDS011;44505;43.240;0.070;2022-08-21T03:05:26;3.63;;;3.00;;
58727;SDS011;44505;43.240;0.070;2022-08-21T03:07:51;4.75;;;3.05;;
58727;SDS011;44505;43.240;0.070;2022-08-21T03:10:21;4.93;;;2.85;;
58727;SDS011;44505;43.240;0.070;2022-08-21T03:12:47;4.07;;;3.67;;
58727;SDS011;44505;43.240;0.070;2022-08-21T03:15:14;5.70;;;2.90;;
58727;SDS011;44505;43.240;0.070;2022-08-21T03:17:40;2.92;;;2.40;;
58727;SDS011;44505;43.240;0.070;2022-08-21T03:20:06;4.35;;;3.47;;
58727;SDS011;44505;43.240;0.070;2022-08-21T03:22:32;4.65;;;2.80;;
58727;SDS011;44505;43.240;0.070;2022-08-21T03:24:57;6.25;;;3.20;;
58727;SDS011;44505;43.240;0.070;2022-08-21T03:27:24;4.13;;;2.87;;
58727;SDS011;44505;43.240;0.070;2022-08-21T03:29:51;4.70;;;2.90;;
58727;SDS011;44505;43.240;0.070;2022-08-21T03:32:17;3.65;;;3.35;;
58727;SDS011;44505;43.240;0.070;2022-08-21T03:34:42;5.43;;;3.67;;
58727;SDS011;44505;43.240;0.070;2022-08-21T03:37:08;4.35;;;3.63;;
58727;SDS011;44505;43.240;0.070;2022-08-21T03:39:34;4.78;;;3.03;;
58727;SDS011;44505;43.240;0.070;2022-08-21T03:42:00;6.00;;;3.13;;
58727;SDS011;44505;43.240;0.070;2022-08-21T03:44:26;3.88;;;3.58;;
58727;SDS011;44505;43.240;0.070;2022-08-21T03:49:18;5.47;;;2.83;;
58727;SDS011;44505;43.240;0.070;2022-08-21T03:51:44;4.57;;;3.22;;
58727;SDS011;44505;43.240;0.070;2022-08-21T03:54:09;4.25;;;2.90;;
58727;SDS011;44505;43.240;0.070;2022-08-21T03:56:35;4.65;;;3.83;;
58727;SDS011;44505;43.240;0.070;2022-08-21T03:59:00;4.88;;;3.10;;
58727;SDS011;44505;43.240;0.070;2022-08-21T04:01:27;5.65;;;3.20;;
58727;SDS011;44505;43.240;0.070;2022-08-21T04:03:53;3.63;;;2.72;;
58727;SDS011;44505;43.240;0.070;2022-08-21T04:06:18;4.47;;;2.88;;
58727;SDS011;44505;43.240;0.070;2022-08-21T04:08:43;3.72;;;2.85;;
58727;SDS011;44505;43.240;0.070;2022-08-21T04:11:09;3.92;;;2.83;;
58727;SDS011;44505;43.240;0.070;2022-08-21T04:13:37;3.78;;;3.47;;
58727;SDS011;44505;43.240;0.070;2022-08-21T04:16:04;4.35;;;3.03;;
58727;SDS011;44505;43.240;0.070;2022-08-21T04:18:29;7.45;;;2.80;;
58727;SDS011;44505;43.240;0.070;2022-08-21T04:20:55;3.80;;;2.70;;
58727;SDS011;44505;43.240;0.070;2022-08-21T04:23:21;5.03;;;3.10;;
58727;SDS011;44505;43.240;0.070;2022-08-21T04:25:47;4.03;;;3.10;;
58727;SDS011;44505;43.240;0.070;2022-08-21T04:28:12;5.22;;;2.63;;
58727;SDS011;44505;43.240;0.070;2022-08-21T04:30:38;4.28;;;2.97;;
58727;SDS011;44505;43.240;0.070;2022-08-21T04:33:04;4.35;;;3.15;;
58727;SDS011;44505;43.240;0.070;2022-08-21T04:35:29;3.47;;;2.70;;
58727;SDS011;44505;43.240;0.070;2022-08-21T04:37:55;4.78;;;2.65;;
58727;SDS011;44505;43.240;0.070;2022-08-21T04:40:21;4.25;;;2.53;;
58727;SDS011;44505;43.240;0.070;2022-08-21T04:42:55;3.53;;;2.22;;
58727;SDS011;44505;43.240;0.070;2022-08-21T04:45:26;4.25;;;2.63;;
58727;SDS011;44505;43.240;0.070;2022-08-21T04:47:53;3.78;;;2.83;;
58727;SDS011;44505;43.240;0.070;2022-08-21T04:50:20;3.90;;;3.45;;
58727;SDS011;44505;43.240;0.070;2022-08-21T04:52:46;2.67;;;2.47;;
58727;SDS011;44505;43.240;0.070;2022-08-21T04:55:12;4.05;;;2.40;;
58727;SDS011;44505;43.240;0.070;2022-08-21T04:57:37;4.35;;;2.47;;
58727;SDS011;44505;43.240;0.070;2022-08-21T05:00:03;5.00;;;2.90;;
58727;SDS011;44505;43.240;0.070;2022-08-21T05:02:30;4.97;;;3.15;;
58727;SDS011;44505;43.240;0.070;2022-08-21T05:04:58;3.35;;;2.60;;
58727;SDS011;44505;43.240;0.070;2022-08-21T05:07:25;5.15;;;3.00;;
58727;SDS011;44505;43.240;0.070;2022-08-21T05:09:51;5.35;;;2.45;;
58727;SDS011;44505;43.240;0.070;2022-08-21T05:12:17;3.00;;;2.38;;
58727;SDS011;44505;43.240;0.070;2022-08-21T05:14:42;3.13;;;2.55;;
58727;SDS011;44505;43.240;0.070;2022-08-21T05:17:08;3.75;;;2.42;;
58727;SDS011;44505;43.240;0.070;2022-08-21T05:19:34;4.47;;;3.40;;
58727;SDS011;44505;43.240;0.070;2022-08-21T05:21:59;3.25;;;2.67;;
58727;SDS011;44505;43.240;0.070;2022-08-21T05:24:26;3.75;;;2.58;;
58727;SDS011;44505;43.240;0.070;2022-08-21T05:26:51;5.97;;;3.17;;
58727;SDS011;44505;43.240;0.070;2022-08-21T05:29:17;3.38;;;2.65;;
58727;SDS011;44505;43.240;0.070;2022-08-21T05:31:42;3.92;;;2.53;;
58727;SDS011;44505;43.240;0.070;2022-08-21T05:34:08;3.70;;;2.50;;
58727;SDS011;44505;43.240;0.070;2022-08-21T05:36:33;4.88;;;3.28;;
58727;SDS011;44505;43.240;0.070;2022-08-21T05:38:59;3.25;;;2.55;;
58727;SDS011;44505;43.240;0.070;2022-08-21T05:41:24;2.95;;;2.58;;
58727;SDS011;44505;43.240;0.070;2022-08-21T05:43:49;3.45;;;2.35;;
58727;SDS011;44505;43.240;0.070;2022-08-21T05:46:15;2.88;;;2.10;;
58727;SDS011;44505;43.240;0.070;2022-08-21T05:48:40;3.35;;;3.03;;
58727;SDS011;44505;43.240;0.070;2022-08-21T05:51:07;3.47;;;2.05;;
58727;SDS011;44505;43.240;0.070;2022-08-21T05:53:33;2.85;;;2.65;;
58727;SDS011;44505;43.240;0.070;2022-08-21T05:55:58;3.13;;;2.10;;
58727;SDS011;44505;43.240;0.070;2022-08-21T05:58:24;2.42;;;2.10;;
58727;SDS011;44505;43.240;0.070;2022-08-21T06:00:50;4.78;;;2.50;;
58727;SDS011;44505;43.240;0.070;2022-08-21T06:03:20;3.00;;;2.40;;
58727;SDS011;44505;43.240;0.070;2022-08-21T06:05:46;1.92;;;1.83;;
58727;SDS011;44505;43.240;0.070;2022-08-21T06:08:11;3.58;;;2.67;;
58727;SDS011;44505;43.240;0.070;2022-08-21T06:10:37;4.15;;;2.65;;
58727;SDS011;44505;43.240;0.070;2022-08-21T06:13:02;3.75;;;2.75;;
58727;SDS011;44505;43.240;0.070;2022-08-21T06:15:28;3.08;;;2.55;;
58727;SDS011;44505;43.240;0.070;2022-08-21T06:17:54;3.53;;;2.50;;
58727;SDS011;44505;43.240;0.070;2022-08-21T06:20:19;3.30;;;2.45;;
58727;SDS011;44505;43.240;0.070;2022-08-21T06:22:45;2.78;;;2.05;;
58727;SDS011;44505;43.240;0.070;2022-08-21T06:25:10;3.00;;;2.08;;
58727;SDS011;44505;43.240;0.070;2022-08-21T06:27:36;4.47;;;2.35;;
58727;SDS011;44505;43.240;0.070;2022-08-21T06:30:02;4.15;;;2.38;;
58727;SDS011;44505;43.240;0.070;2022-08-21T06:32:28;2.60;;;2.00;;
58727;SDS011;44505;43.240;0.070;2022-08-21T06:34:53;3.67;;;2.15;;
58727;SDS011;44505;43.240;0.070;2022-08-21T06:37:18;2.40;;;2.15;;
58727;SDS011;44505;43.240;0.070;2022-08-21T06:39:44;2.97;;;2.25;;
58727;SDS011;44505;43.240;0.070;2022-08-21T06:42:13;3.75;;;2.15;;
58727;SDS011;44505;43.240;0.070;2022-08-21T06:44:39;3.03;;;1.80;;
58727;SDS011;44505;43.240;0.070;2022-08-21T06:47:04;2.13;;;1.88;;
58727;SDS011;44505;43.240;0.070;2022-08-21T06:49:30;3.85;;;2.78;;
58727;SDS011;44505;43.240;0.070;2022-08-21T06:51:55;3.90;;;2.13;;
58727;SDS011;44505;43.240;0.070;2022-08-21T06:54:20;1.90;;;1.70;;
58727;SDS011;44505;43.240;0.070;2022-08-21T06:56:46;2.97;;;2.20;;
58727;SDS011;44505;43.240;0.070;2022-08-21T06:59:11;2.17;;;1.90;;
58727;SDS011;44505;43.240;0.070;2022-08-21T07:01:37;3.50;;;2.30;;
58727;SDS011;44505;43.240;0.070;2022-08-21T07:04:02;1.88;;;1.50;;
58727;SDS011;44505;43.240;0.070;2022-08-21T07:06:28;2.60;;;2.20;;
58727;SDS011;44505;43.240;0.070;2022-08-21T07:08:53;2.50;;;2.28;;
58727;SDS011;44505;43.240;0.070;2022-08-21T07:11:21;3.40;;;2.10;;
58727;SDS011;44505;43.240;0.070;2022-08-21T07:13:47;3.67;;;1.95;;
58727;SDS011;44505;43.240;0.070;2022-08-21T07:16:13;3.42;;;2.00;;
58727;SDS011;44505;43.240;0.070;2022-08-21T07:18:39;4.72;;;1.83;;
58727;SDS011;44505;43.240;0.070;2022-08-21T07:21:05;2.42;;;2.00;;
58727;SDS011;44505;43.240;0.070;2022-08-21T07:23:41;2.53;;;1.83;;
58727;SDS011;44505;43.240;0.070;2022-08-21T07:26:07;1.98;;;1.73;;
58727;SDS011;44505;43.240;0.070;2022-08-21T07:28:32;2.05;;;1.85;;
58727;SDS011;44505;43.240;0.070;2022-08-21T07:30:59;2.47;;;1.80;;
58727;SDS011;44505;43.240;0.070;2022-08-21T07:33:25;2.53;;;1.90;;
58727;SDS011;44505;43.240;0.070;2022-08-21T07:35:50;2.42;;;1.92;;
58727;SDS011;44505;43.240;0.070;2022-08-21T07:38:16;2.50;;;1.70;;
58727;SDS011;44505;43.240;0.070;2022-08-21T07:40:43;6.47;;;1.97;;
58727;SDS011;44505;43.240;0.070;2022-08-21T07:43:08;2.50;;;2.03;;
58727;SDS011;44505;43.240;0.070;2022-08-21T07:45:34;2.60;;;1.55;;
58727;SDS011;44505;43.240;0.070;2022-08-21T07:47:59;2.47;;;1.88;;
58727;SDS011;44505;43.240;0.070;2022-08-21T07:50:25;2.85;;;2.22;;
58727;SDS011;44505;43.240;0.070;2022-08-21T07:52:50;1.90;;;1.60;;
58727;SDS011;44505;43.240;0.070;2022-08-21T07:55:17;2.50;;;1.80;;
58727;SDS011;44505;43.240;0.070;2022-08-21T07:57:42;3.78;;;1.67;;
58727;SDS011;44505;43.240;0.070;2022-08-21T08:00:09;4.28;;;2.10;;
58727;SDS011;44505;43.240;0.070;2022-08-21T08:02:36;2.42;;;1.90;;
58727;SDS011;44505;43.240;0.070;2022-08-21T08:05:03;2.30;;;2.00;;
58727;SDS011;44505;43.240;0.070;2022-08-21T08:07:29;1.80;;;1.52;;
58727;SDS011;44505;43.240;0.070;2022-08-21T08:09:55;1.73;;;1.40;;
58727;SDS011;44505;43.240;0.070;2022-08-21T08:12:22;2.45;;;1.50;;
58727;SDS011;44505;43.240;0.070;2022-08-21T08:17:13;1.35;;;1.25;;
58727;SDS011;44505;43.240;0.070;2022-08-21T08:19:39;1.90;;;1.17;;
58727;SDS011;44505;43.240;0.070;2022-08-21T08:22:17;1.10;;;1.10;;
58727;SDS011;44505;43.240;0.070;2022-08-21T08:24:48;2.00;;;1.80;;
58727;SDS011;44505;43.240;0.070;2022-08-21T08:27:14;2.63;;;1.65;;
58727;SDS011;44505;43.240;0.070;2022-08-21T08:29:40;1.42;;;1.25;;
58727;SDS011;44505;43.240;0.070;2022-08-21T08:32:05;1.50;;;1.40;;
58727;SDS011;44505;43.240;0.070;2022-08-21T08:34:33;1.98;;;1.73;;
58727;SDS011;44505;43.240;0.070;2022-08-21T08:36:58;2.20;;;1.80;;
58727;SDS011;44505;43.240;0.070;2022-08-21T08:39:24;2.33;;;2.13;;
58727;SDS011;44505;43.240;0.070;2022-08-21T08:41:52;3.28;;;2.50;;
58727;SDS011;44505;43.240;0.070;2022-08-21T08:44:21;2.33;;;1.92;;
58727;SDS011;44505;43.240;0.070;2022-08-21T08:46:47;3.88;;;2.72;;
58727;SDS011;44505;43.240;0.070;2022-08-21T08:51:44;3.42;;;2.70;;
58727;SDS011;44505;43.240;0.070;2022-08-21T08:54:13;2.78;;;1.85;;
58727;SDS011;44505;43.240;0.070;2022-08-21T08:56:40;2.50;;;2.30;;
58727;SDS011;44505;43.240;0.070;2022-08-21T08:59:18;2.67;;;2.47;;
58727;SDS011;44505;43.240;0.070;2022-08-21T09:01:44;2.97;;;2.60;;
58727;SDS011;44505;43.240;0.070;2022-08-21T09:04:10;2.17;;;1.98;;
58727;SDS011;44505;43.240;0.070;2022-08-21T09:06:51;2.20;;;2.00;;
58727;SDS011;44505;43.240;0.070;2022-08-21T09:17:29;2.15;;;2.03;;
58727;SDS011;44505;43.240;0.070;2022-08-21T09:20:07;2.15;;;2.05;;
58727;SDS011;44505;43.240;0.070;2022-08-21T09:22:40;2.10;;;1.90;;
58727;SDS011;44505;43.240;0.070;2022-08-21T09:27:37;2.50;;;2.30;;
58727;SDS011;44505;43.240;0.070;2022-08-21T09:30:03;2.25;;;2.15;;
58727;SDS011;44505;43.240;0.070;2022-08-21T09:32:30;2.80;;;2.00;;
58727;SDS011;44505;43.240;0.070;2022-08-21T09:34:57;2.25;;;2.00;;
58727;SDS011;44505;43.240;0.070;2022-08-21T09:37:24;1.98;;;1.88;;
58727;SDS011;44505;43.240;0.070;2022-08-21T09:39:50;2.50;;;2.00;;
58727;SDS011;44505;43.240;0.070;2022-08-21T09:42:24;2.70;;;2.50;;
58727;SDS011;44505;43.240;0.070;2022-08-21T09:45:09;2.38;;;2.28;;
58727;SDS011;44505;43.240;0.070;2022-08-21T09:47:35;3.40;;;2.42;;
58727;SDS011;44505;43.240;0.070;2022-08-21T09:50:11;2.30;;;2.10;;
58727;SDS011;44505;43.240;0.070;2022-08-21T09:52:42;2.03;;;1.90;;
58727;SDS011;44505;43.240;0.070;2022-08-21T09:55:08;2.90;;;2.10;;
58727;SDS011;44505;43.240;0.070;2022-08-21T09:58:00;4.10;;;2.25;;
58727;SDS011;44505;43.240;0.070;2022-08-21T10:00:30;2.35;;;2.15;;
58727;SDS011;44505;43.240;0.070;2022-08-21T10:05:38;2.35;;;2.03;;
58727;SDS011;44505;43.240;0.070;2022-08-21T10:08:04;3.00;;;2.10;;
58727;SDS011;44505;43.240;0.070;2022-08-21T10:10:32;2.67;;;2.40;;
58727;SDS011;44505;43.240;0.070;2022-08-21T10:16:00;2.45;;;2.25;;
58727;SDS011;44505;43.240;0.070;2022-08-21T10:18:29;3.80;;;2.30;;
58727;SDS011;44505;43.240;0.070;2022-08-21T10:21:05;2.05;;;1.85;;
58727;SDS011;44505;43.240;0.070;2022-08-21T10:29:07;2.58;;;2.38;;
58727;SDS011;44505;43.240;0.070;2022-08-21T10:31:38;2.88;;;2.63;;
58727;SDS011;44505;43.240;0.070;2022-08-21T10:34:15;3.35;;;2.42;;
58727;SDS011;44505;43.240;0.070;2022-08-21T10:39:35;2.67;;;2.47;;
58727;SDS011;44505;43.240;0.070;2022-08-21T10:44:34;2.60;;;2.40;;
58727;SDS011;44505;43.240;0.070;2022-08-21T10:47:18;2.80;;;2.47;;
58727;SDS011;44505;43.240;0.070;2022-08-21T10:52:34;2.63;;;2.40;;
58727;SDS011;44505;43.240;0.070;2022-08-21T11:00:21;2.97;;;2.70;;
58727;SDS011;44505;43.240;0.070;2022-08-21T11:05:15;2.78;;;2.47;;
58727;SDS011;44505;43.240;0.070;2022-08-21T11:07:47;2.70;;;2.50;;
58727;SDS011;44505;43.240;0.070;2022-08-21T11:10:27;2.50;;;2.30;;
58727;SDS011;44505;43.240;0.070;2022-08-21T11:12:56;3.00;;;2.67;;
58727;SDS011;44505;43.240;0.070;2022-08-21T11:17:52;2.50;;;2.30;;
58727;SDS011;44505;43.240;0.070;2022-08-21T11:20:23;2.85;;;2.65;;
58727;SDS011;44505;43.240;0.070;2022-08-21T11:25:52;3.95;;;2.60;;
58727;SDS011;44505;43.240;0.070;2022-08-21T11:28:32;2.55;;;2.35;;
58727;SDS011;44505;43.240;0.070;2022-08-21T11:39:02;2.50;;;2.30;;
58727;SDS011;44505;43.240;0.070;2022-08-21T11:41:33;2.72;;;2.38;;
58727;SDS011;44505;43.240;0.070;2022-08-21T11:44:15;4.32;;;2.90;;
58727;SDS011;44505;43.240;0.070;2022-08-21T11:46:51;2.60;;;2.40;;
58727;SDS011;44505;43.240;0.070;2022-08-21T11:51:53;2.75;;;2.20;;
58727;SDS011;44505;43.240;0.070;2022-08-21T11:54:25;2.80;;;2.08;;
58727;SDS011;44505;43.240;0.070;2022-08-21T11:56:54;2.88;;;2.33;;
58727;SDS011;44505;43.240;0.070;2022-08-21T11:59:22;2.42;;;2.22;;
58727;SDS011;44505;43.240;0.070;2022-08-21T12:01:48;3.80;;;2.30;;
58727;SDS011;44505;43.240;0.070;2022-08-21T12:04:42;2.45;;;2.25;;
58727;SDS011;44505;43.240;0.070;2022-08-21T12:07:12;2.50;;;2.33;;
58727;SDS011;44505;43.240;0.070;2022-08-21T12:09:38;3.30;;;2.17;;
58727;SDS011;44505;43.240;0.070;2022-08-21T12:17:23;2.47;;;2.28;;
58727;SDS011;44505;43.240;0.070;2022-08-21T12:19:58;2.55;;;2.10;;
58727;SDS011;44505;43.240;0.070;2022-08-21T12:22:35;3.00;;;2.67;;
58727;SDS011;44505;43.240;0.070;2022-08-21T12:25:10;3.25;;;2.10;;
58727;SDS011;44505;43.240;0.070;2022-08-21T12:27:46;2.78;;;2.30;;
58727;SDS011;44505;43.240;0.070;2022-08-21T12:30:21;2.95;;;2.13;;
58727;SDS011;44505;43.240;0.070;2022-08-21T12:32:53;2.38;;;2.17;;
58727;SDS011;44505;43.240;0.070;2022-08-21T12:35:33;2.47;;;2.08;;
58727;SDS011;44505;43.240;0.070;2022-08-21T12:40:31;2.92;;;2.20;;
58727;SDS011;44505;43.240;0.070;2022-08-21T12:43:00;2.10;;;1.95;;
58727;SDS011;44505;43.240;0.070;2022-08-21T12:45:31;2.42;;;2.20;;
58727;SDS011;44505;43.240;0.070;2022-08-21T12:50:42;1.90;;;1.80;;
58727;SDS011;44505;43.240;0.070;2022-08-21T12:53:29;2.20;;;1.95;;
58727;SDS011;44505;43.240;0.070;2022-08-21T12:55:55;2.78;;;2.03;;
58727;SDS011;44505;43.240;0.070;2022-08-21T12:58:27;4.43;;;2.33;;
58727;SDS011;44505;43.240;0.070;2022-08-21T13:00:56;2.25;;;2.05;;
58727;SDS011;44505;43.240;0.070;2022-08-21T13:03:22;2.40;;;2.20;;
58727;SDS011;44505;43.240;0.070;2022-08-21T13:05:48;2.58;;;2.38;;
58727;SDS011;44505;43.240;0.070;2022-08-21T13:08:16;2.58;;;2.00;;
58727;SDS011;44505;43.240;0.070;2022-08-21T13:10:42;3.13;;;2.00;;
58727;SDS011;44505;43.240;0.070;2022-08-21T13:13:12;3.63;;;2.22;;
58727;SDS011;44505;43.240;0.070;2022-08-21T13:15:40;2.28;;;2.08;;
58727;SDS011;44505;43.240;0.070;2022-08-21T13:18:06;2.88;;;2.20;;
58727;SDS011;44505;43.240;0.070;2022-08-21T13:20:34;2.53;;;2.00;;
58727;SDS011;44505;43.240;0.070;2022-08-21T13:23:00;2.10;;;2.00;;
58727;SDS011;44505;43.240;0.070;2022-08-21T13:25:27;2.05;;;1.92;;
58727;SDS011;44505;43.240;0.070;2022-08-21T13:27:57;3.05;;;2.05;;
58727;SDS011;44505;43.240;0.070;2022-08-21T13:30:24;2.40;;;2.20;;
58727;SDS011;44505;43.240;0.070;2022-08-21T13:32:50;2.47;;;2.17;;
58727;SDS011;44505;43.240;0.070;2022-08-21T13:35:24;2.95;;;1.95;;
58727;SDS011;44505;43.240;0.070;2022-08-21T13:37:51;2.60;;;2.40;;
58727;SDS011;44505;43.240;0.070;2022-08-21T13:40:28;2.30;;;2.10;;
58727;SDS011;44505;43.240;0.070;2022-08-21T13:42:54;2.88;;;2.45;;
58727;SDS011;44505;43.240;0.070;2022-08-21T13:45:24;2.10;;;1.90;;
58727;SDS011;44505;43.240;0.070;2022-08-21T13:47:49;2.20;;;1.98;;
58727;SDS011;44505;43.240;0.070;2022-08-21T13:50:16;2.55;;;2.35;;
58727;SDS011;44505;43.240;0.070;2022-08-21T13:52:49;2.00;;;1.90;;
58727;SDS011;44505;43.240;0.070;2022-08-21T13:55:16;2.40;;;2.03;;
58727;SDS011;44505;43.240;0.070;2022-08-21T13:57:42;3.25;;;2.20;;
58727;SDS011;44505;43.240;0.070;2022-08-21T14:00:18;2.35;;;2.15;;
58727;SDS011;44505;43.240;0.070;2022-08-21T14:02:49;3.13;;;2.58;;
58727;SDS011;44505;43.240;0.070;2022-08-21T14:05:21;3.15;;;2.15;;
58727;SDS011;44505;43.240;0.070;2022-08-21T14:07:46;2.75;;;2.20;;
58727;SDS011;44505;43.240;0.070;2022-08-21T14:10:17;3.15;;;2.53;;
58727;SDS011;44505;43.240;0.070;2022-08-21T14:12:48;4.25;;;3.17;;
58727;SDS011;44505;43.240;0.070;2022-08-21T14:15:16;2.60;;;2.17;;
58727;SDS011;44505;43.240;0.070;2022-08-21T14:17:42;3.40;;;2.30;;
58727;SDS011;44505;43.240;0.070;2022-08-21T14:20:09;4.07;;;2.33;;
58727;SDS011;44505;43.240;0.070;2022-08-21T14:25:02;1.93;;;1.83;;
58727;SDS011;44505;43.240;0.070;2022-08-21T14:27:29;2.42;;;2.22;;
58727;SDS011;44505;43.240;0.070;2022-08-21T14:30:38;2.90;;;2.30;;
58727;SDS011;44505;43.240;0.070;2022-08-21T14:32:44;2.33;;;1.98;;
58727;SDS011;44505;43.240;0.070;2022-08-21T14:35:10;3.75;;;2.47;;
58727;SDS011;44505;43.240;0.070;2022-08-21T14:37:36;2.80;;;2.35;;
58727;SDS011;44505;43.240;0.070;2022-08-21T14:40:02;3.83;;;2.25;;
58727;SDS011;44505;43.240;0.070;2022-08-21T14:42:28;2.65;;;2.10;;
58727;SDS011;44505;43.240;0.070;2022-08-21T14:44:54;3.05;;;1.95;;
58727;SDS011;44505;43.240;0.070;2022-08-21T14:49:46;4.10;;;2.83;;
58727;SDS011;44505;43.240;0.070;2022-08-21T14:52:12;5.10;;;2.78;;
58727;SDS011;44505;43.240;0.070;2022-08-21T14:54:38;2.80;;;2.40;;
58727;SDS011;44505;43.240;0.070;2022-08-21T14:57:05;3.28;;;2.50;;
58727;SDS011;44505;43.240;0.070;2022-08-21T14:59:31;2.65;;;2.33;;
58727;SDS011;44505;43.240;0.070;2022-08-21T15:01:58;2.53;;;2.30;;
58727;SDS011;44505;43.240;0.070;2022-08-21T15:04:23;2.15;;;1.98;;
58727;SDS011;44505;43.240;0.070;2022-08-21T15:06:48;3.65;;;2.63;;
58727;SDS011;44505;43.240;0.070;2022-08-21T15:09:14;3.63;;;2.53;;
58727;SDS011;44505;43.240;0.070;2022-08-21T15:11:39;2.67;;;2.40;;
58727;SDS011;44505;43.240;0.070;2022-08-21T15:14:06;3.15;;;2.80;;
58727;SDS011;44505;43.240;0.070;2022-08-21T15:16:33;2.75;;;2.50;;
58727;SDS011;44505;43.240;0.070;2022-08-21T15:18:58;3.63;;;2.50;;
58727;SDS011;44505;43.240;0.070;2022-08-21T15:21:24;2.30;;;2.10;;
58727;SDS011;44505;43.240;0.070;2022-08-21T15:23:49;3.88;;;2.38;;
58727;SDS011;44505;43.240;0.070;2022-08-21T15:26:14;3.83;;;2.50;;
58727;SDS011;44505;43.240;0.070;2022-08-21T15:28:40;2.85;;;2.55;;
58727;SDS011;44505;43.240;0.070;2022-08-21T15:31:06;5.00;;;2.50;;
58727;SDS011;44505;43.240;0.070;2022-08-21T15:33:31;2.50;;;2.30;;
58727;SDS011;44505;43.240;0.070;2022-08-21T15:35:57;2.83;;;2.47;;
58727;SDS011;44505;43.240;0.070;2022-08-21T15:38:23;4.47;;;2.80;;
58727;SDS011;44505;43.240;0.070;2022-08-21T15:40:48;2.90;;;2.70;;
58727;SDS011;44505;43.240;0.070;2022-08-21T15:43:21;2.65;;;2.42;;
58727;SDS011;44505;43.240;0.070;2022-08-21T15:45:47;3.28;;;2.55;;
58727;SDS011;44505;43.240;0.070;2022-08-21T15:48:13;3.85;;;2.63;;
58727;SDS011;44505;43.240;0.070;2022-08-21T15:50:38;2.70;;;2.50;;
58727;SDS011;44505;43.240;0.070;2022-08-21T15:53:03;3.10;;;2.60;;
58727;SDS011;44505;43.240;0.070;2022-08-21T15:55:32;4.80;;;2.70;;
58727;SDS011;44505;43.240;0.070;2022-08-21T15:57:57;3.35;;;2.63;;
58727;SDS011;44505;43.240;0.070;2022-08-21T16:00:23;4.32;;;2.63;;
58727;SDS011;44505;43.240;0.070;2022-08-21T16:02:50;4.03;;;2.83;;
58727;SDS011;44505;43.240;0.070;2022-08-21T16:05:16;2.60;;;2.40;;
58727;SDS011;44505;43.240;0.070;2022-08-21T16:07:43;3.10;;;2.55;;